sensor_id;sensor_type;location;lat;lon;timestamp;pressure;altitude;pressure_sealevel;temperature;humidity
1736;BME280;865;53.672;10.250;2023-04-09T00:00:08;102447.34;;;5.46;100.00
1736;BME280;865;53.672;10.250;2023-04-09T00:02:35;102438.75;;;5.47;100.00
1736;BME280;865;53.672;10.250;2023-04-09T00:05:01;102438.75;;;5.47;100.00
1736;BME280;865;53.672;10.250;2023-04-09T00:07:28;102436.16;;;5.47;100.00
1736;BME280;865;53.672;10.250;2023-04-09T00:09:54;102439.66;;;5.49;100.00
1736;BME280;865;53.672;10.250;2023-04-09T00:12:21;102434.41;;;5.46;100.00
1736;BME280;865;53.672;10.250;2023-04-09T00:14:47;102437.16;;;5.53;100.00
1736;BME280;865;53.672;10.250;2023-04-09T00:17:14;102424.19;;;5.51;100.00
1736;BME280;865;53.672;10.250;2023-04-09T00:19:40;102426.69;;;5.48;100.00
1736;BME280;865;53.672;10.250;2023-04-09T00:22:07;102429.03;;;5.40;100.00
1736;BME280;865;53.672;10.250;2023-04-09T00:24:33;102430.09;;;5.47;100.00
1736;BME280;865;53.672;10.250;2023-04-09T00:26:59;102430.22;;;5.52;100.00
1736;BME280;865;53.672;10.250;2023-04-09T00:29:26;102421.78;;;5.59;100.00
1736;BME280;865;53.672;10.250;2023-04-09T00:31:52;102424.91;;;5.47;100.00
1736;BME280;865;53.672;10.250;2023-04-09T00:34:18;102425.91;;;5.51;100.00
1736;BME280;865;53.672;10.250;2023-04-09T00:36:45;102423.66;;;5.33;100.00
1736;BME280;865;53.672;10.250;2023-04-09T00:39:11;102422.03;;;5.36;100.00
1736;BME280;865;53.672;10.250;2023-04-09T00:41:38;102424.38;;;5.29;100.00
1736;BME280;865;53.672;10.250;2023-04-09T00:44:04;102420.19;;;5.32;100.00
1736;BME280;865;53.672;10.250;2023-04-09T00:46:31;102425.94;;;5.22;100.00
1736;BME280;865;53.672;10.250;2023-04-09T00:48:58;102426.59;;;5.15;100.00
1736;BME280;865;53.672;10.250;2023-04-09T00:51:24;102428.44;;;5.19;100.00
1736;BME280;865;53.672;10.250;2023-04-09T00:53:52;102427.56;;;5.20;100.00
1736;BME280;865;53.672;10.250;2023-04-09T00:56:20;102433.03;;;5.29;100.00
1736;BME280;865;53.672;10.250;2023-04-09T00:58:47;102429.34;;;5.21;100.00
1736;BME280;865;53.672;10.250;2023-04-09T01:01:14;102420.66;;;5.19;100.00
1736;BME280;865;53.672;10.250;2023-04-09T01:03:41;102421.50;;;5.18;100.00
1736;BME280;865;53.672;10.250;2023-04-09T01:06:14;102418.75;;;5.12;100.00
1736;BME280;865;53.672;10.250;2023-04-09T01:08:50;102427.66;;;5.23;100.00
1736;BME280;865;53.672;10.250;2023-04-09T01:14:05;102425.09;;;5.23;100.00
1736;BME280;865;53.672;10.250;2023-04-09T01:16:36;102434.88;;;5.33;100.00
1736;BME280;865;53.672;10.250;2023-04-09T01:19:11;102428.78;;;5.31;100.00
1736;BME280;865;53.672;10.250;2023-04-09T01:21:45;102424.78;;;5.42;100.00
1736;BME280;865;53.672;10.250;2023-04-09T01:24:19;102425.06;;;5.52;100.00
1736;BME280;865;53.672;10.250;2023-04-09T01:27:01;102424.09;;;5.48;100.00
1736;BME280;865;53.672;10.250;2023-04-09T01:29:41;102429.00;;;5.39;100.00
1736;BME280;865;53.672;10.250;2023-04-09T01:32:11;102420.31;;;5.37;100.00
1736;BME280;865;53.672;10.250;2023-04-09T01:34:40;102424.38;;;5.27;100.00
1736;BME280;865;53.672;10.250;2023-04-09T01:37:07;102427.84;;;5.29;100.00
1736;BME280;865;53.672;10.250;2023-04-09T01:39:35;102416.03;;;5.37;100.00
1736;BME280;865;53.672;10.250;2023-04-09T01:42:03;102412.97;;;5.51;100.00
1736;BME280;865;53.672;10.250;2023-04-09T01:44:31;102418.06;;;5.49;100.00
1736;BME280;865;53.672;10.250;2023-04-09T01:46:58;102416.69;;;5.60;100.00
1736;BME280;865;53.672;10.250;2023-04-09T01:49:26;102412.16;;;5.53;100.00
1736;BME280;865;53.672;10.250;2023-04-09T01:51:53;102418.38;;;5.60;100.00
1736;BME280;865;53.672;10.250;2023-04-09T01:54:20;102410.19;;;5.44;100.00
1736;BME280;865;53.672;10.250;2023-04-09T01:56:47;102424.88;;;5.45;100.00
1736;BME280;865;53.672;10.250;2023-04-09T01:59:14;102415.09;;;5.35;100.00
1736;BME280;865;53.672;10.250;2023-04-09T02:01:52;102418.41;;;5.30;100.00
1736;BME280;865;53.672;10.250;2023-04-09T02:04:32;102406.38;;;5.32;100.00
1736;BME280;865;53.672;10.250;2023-04-09T02:07:51;102409.91;;;5.35;100.00
1736;BME280;865;53.672;10.250;2023-04-09T02:09:56;102405.56;;;5.33;100.00
1736;BME280;865;53.672;10.250;2023-04-09T02:12:25;102410.81;;;5.36;100.00
1736;BME280;865;53.672;10.250;2023-04-09T02:14:52;102415.16;;;5.38;100.00
1736;BME280;865;53.672;10.250;2023-04-09T02:17:19;102415.84;;;5.31;100.00
1736;BME280;865;53.672;10.250;2023-04-09T02:19:46;102409.72;;;5.28;100.00
1736;BME280;865;53.672;10.250;2023-04-09T02:22:14;102413.22;;;5.30;100.00
1736;BME280;865;53.672;10.250;2023-04-09T02:24:40;102407.16;;;5.29;100.00
1736;BME280;865;53.672;10.250;2023-04-09T02:27:07;102407.75;;;5.20;100.00
1736;BME280;865;53.672;10.250;2023-04-09T02:29:33;102409.63;;;5.24;100.00
1736;BME280;865;53.672;10.250;2023-04-09T02:32:00;102402.66;;;5.22;100.00
1736;BME280;865;53.672;10.250;2023-04-09T02:34:26;102409.34;;;5.15;100.00
1736;BME280;865;53.672;10.250;2023-04-09T02:36:53;102403.56;;;5.24;100.00
1736;BME280;865;53.672;10.250;2023-04-09T02:39:19;102401.72;;;5.20;100.00
1736;BME280;865;53.672;10.250;2023-04-09T02:41:46;102401.09;;;5.29;100.00
1736;BME280;865;53.672;10.250;2023-04-09T02:44:12;102396.50;;;5.18;100.00
1736;BME280;865;53.672;10.250;2023-04-09T02:46:39;102397.97;;;5.09;100.00
1736;BME280;865;53.672;10.250;2023-04-09T02:49:07;102388.50;;;5.09;100.00
1736;BME280;865;53.672;10.250;2023-04-09T02:51:34;102388.59;;;5.14;100.00
1736;BME280;865;53.672;10.250;2023-04-09T02:54:01;102382.72;;;5.19;100.00
1736;BME280;865;53.672;10.250;2023-04-09T02:56:27;102387.28;;;5.27;100.00
1736;BME280;865;53.672;10.250;2023-04-09T02:58:54;102379.38;;;5.22;100.00
1736;BME280;865;53.672;10.250;2023-04-09T03:01:20;102372.63;;;5.27;100.00
1736;BME280;865;53.672;10.250;2023-04-09T03:03:47;102365.84;;;5.32;100.00
1736;BME280;865;53.672;10.250;2023-04-09T03:06:13;102364.09;;;5.31;100.00
1736;BME280;865;53.672;10.250;2023-04-09T03:08:40;102359.09;;;5.37;100.00
1736;BME280;865;53.672;10.250;2023-04-09T03:11:06;102364.84;;;5.27;100.00
1736;BME280;865;53.672;10.250;2023-04-09T03:13:33;102365.72;;;5.28;100.00
1736;BME280;865;53.672;10.250;2023-04-09T03:15:59;102368.16;;;5.21;100.00
1736;BME280;865;53.672;10.250;2023-04-09T03:18:26;102363.66;;;5.16;100.00
1736;BME280;865;53.672;10.250;2023-04-09T03:20:52;102364.53;;;5.16;100.00
1736;BME280;865;53.672;10.250;2023-04-09T03:23:18;102361.78;;;5.10;100.00
1736;BME280;865;53.672;10.250;2023-04-09T03:25:45;102360.03;;;5.09;100.00
1736;BME280;865;53.672;10.250;2023-04-09T03:28:11;102362.81;;;5.17;100.00
1736;BME280;865;53.672;10.250;2023-04-09T03:30:37;102364.78;;;5.25;100.00
1736;BME280;865;53.672;10.250;2023-04-09T03:33:04;102356.13;;;5.23;100.00
1736;BME280;865;53.672;10.250;2023-04-09T03:35:30;102362.28;;;5.27;100.00
1736;BME280;865;53.672;10.250;2023-04-09T03:37:57;102358.50;;;5.16;100.00
1736;BME280;865;53.672;10.250;2023-04-09T03:40:23;102360.63;;;5.31;100.00
1736;BME280;865;53.672;10.250;2023-04-09T03:42:49;102364.78;;;5.24;100.00
1736;BME280;865;53.672;10.250;2023-04-09T03:45:16;102373.50;;;5.29;100.00
1736;BME280;865;53.672;10.250;2023-04-09T03:47:42;102370.16;;;5.32;100.00
1736;BME280;865;53.672;10.250;2023-04-09T03:50:09;102370.97;;;5.31;100.00
1736;BME280;865;53.672;10.250;2023-04-09T03:52:35;102370.13;;;5.30;100.00
1736;BME280;865;53.672;10.250;2023-04-09T03:55:02;102369.84;;;5.21;100.00
1736;BME280;865;53.672;10.250;2023-04-09T03:57:28;102369.97;;;5.25;100.00
1736;BME280;865;53.672;10.250;2023-04-09T03:59:54;102366.66;;;5.30;100.00
1736;BME280;865;53.672;10.250;2023-04-09T04:02:21;102368.16;;;5.21;100.00
1736;BME280;865;53.672;10.250;2023-04-09T04:04:47;102371.78;;;5.28;100.00
1736;BME280;865;53.672;10.250;2023-04-09T04:07:14;102375.38;;;5.33;100.00
1736;BME280;865;53.672;10.250;2023-04-09T04:09:41;102372.53;;;5.24;100.00
1736;BME280;865;53.672;10.250;2023-04-09T04:12:07;102370.13;;;5.30;100.00
1736;BME280;865;53.672;10.250;2023-04-09T04:14:34;102371.09;;;5.35;100.00
1736;BME280;865;53.672;10.250;2023-04-09T04:17:00;102374.44;;;5.31;100.00
1736;BME280;865;53.672;10.250;2023-04-09T04:19:26;102383.94;;;5.32;100.00
1736;BME280;865;53.672;10.250;2023-04-09T04:21:53;102380.38;;;5.27;100.00
1736;BME280;865;53.672;10.250;2023-04-09T04:24:19;102384.84;;;5.33;100.00
1736;BME280;865;53.672;10.250;2023-04-09T04:26:45;102383.09;;;5.32;100.00
1736;BME280;865;53.672;10.250;2023-04-09T04:29:12;102393.94;;;5.20;100.00
1736;BME280;865;53.672;10.250;2023-04-09T04:31:38;102389.66;;;5.20;100.00
1736;BME280;865;53.672;10.250;2023-04-09T04:34:04;102395.06;;;5.28;100.00
1736;BME280;865;53.672;10.250;2023-04-09T04:36:31;102388.31;;;5.33;100.00
1736;BME280;865;53.672;10.250;2023-04-09T04:38:57;102389.97;;;5.31;100.00
1736;BME280;865;53.672;10.250;2023-04-09T04:41:24;102387.03;;;5.19;100.00
1736;BME280;865;53.672;10.250;2023-04-09T04:43:50;102388.94;;;5.26;100.00
1736;BME280;865;53.672;10.250;2023-04-09T04:46:16;102383.94;;;5.32;100.00
1736;BME280;865;53.672;10.250;2023-04-09T04:48:44;102392.69;;;5.36;100.00
1736;BME280;865;53.672;10.250;2023-04-09T04:51:10;102387.78;;;5.15;100.00
1736;BME280;865;53.672;10.250;2023-04-09T04:53:36;102385.16;;;5.13;100.00
1736;BME280;865;53.672;10.250;2023-04-09T04:56:03;102381.16;;;5.24;100.00
1736;BME280;865;53.672;10.250;2023-04-09T04:58:29;102377.91;;;5.32;100.00
1736;BME280;865;53.672;10.250;2023-04-09T05:00:56;102384.63;;;5.25;100.00
1736;BME280;865;53.672;10.250;2023-04-09T05:03:23;102377.53;;;5.18;100.00
1736;BME280;865;53.672;10.250;2023-04-09T05:05:52;102383.56;;;5.18;100.00
1736;BME280;865;53.672;10.250;2023-04-09T05:08:19;102391.38;;;5.20;100.00
1736;BME280;865;53.672;10.250;2023-04-09T05:10:45;102385.50;;;5.25;100.00
1736;BME280;865;53.672;10.250;2023-04-09T05:13:12;102388.06;;;5.24;100.00
1736;BME280;865;53.672;10.250;2023-04-09T05:15:39;102388.06;;;5.24;100.00
1736;BME280;865;53.672;10.250;2023-04-09T05:18:06;102390.47;;;5.18;100.00
1736;BME280;865;53.672;10.250;2023-04-09T05:20:33;102393.25;;;5.25;100.00
1736;BME280;865;53.672;10.250;2023-04-09T05:22:59;102398.34;;;5.22;100.00
1736;BME280;865;53.672;10.250;2023-04-09T05:25:26;102398.50;;;5.29;100.00
1736;BME280;865;53.672;10.250;2023-04-09T05:27:52;102398.50;;;5.27;100.00
1736;BME280;865;53.672;10.250;2023-04-09T05:30:19;102392.53;;;5.30;100.00
1736;BME280;865;53.672;10.250;2023-04-09T05:32:45;102397.63;;;5.27;100.00
1736;BME280;865;53.672;10.250;2023-04-09T05:35:12;102397.78;;;5.33;100.00
1736;BME280;865;53.672;10.250;2023-04-09T05:37:38;102404.63;;;5.31;100.00
1736;BME280;865;53.672;10.250;2023-04-09T05:40:05;102397.78;;;5.33;100.00
1736;BME280;865;53.672;10.250;2023-04-09T05:42:31;102396.81;;;5.29;100.00
1736;BME280;865;53.672;10.250;2023-04-09T05:44:58;102400.47;;;5.36;100.00
1736;BME280;865;53.672;10.250;2023-04-09T05:47:24;102399.44;;;5.31;100.00
1736;BME280;865;53.672;10.250;2023-04-09T05:49:51;102395.22;;;5.34;100.00
1736;BME280;865;53.672;10.250;2023-04-09T05:52:17;102395.75;;;5.22;100.00
1736;BME280;865;53.672;10.250;2023-04-09T05:54:44;102405.84;;;5.13;100.00
1736;BME280;865;53.672;10.250;2023-04-09T05:57:11;102400.66;;;5.13;100.00
1736;BME280;865;53.672;10.250;2023-04-09T05:59:37;102405.91;;;5.15;100.00
1736;BME280;865;53.672;10.250;2023-04-09T06:02:04;102402.88;;;5.30;100.00
1736;BME280;865;53.672;10.250;2023-04-09T06:04:30;102397.72;;;5.30;100.00
1736;BME280;865;53.672;10.250;2023-04-09T06:06:57;102402.91;;;5.31;100.00
1736;BME280;865;53.672;10.250;2023-04-09T06:09:25;102414.19;;;5.33;100.00
1736;BME280;865;53.672;10.250;2023-04-09T06:11:52;102406.25;;;5.27;100.00
1736;BME280;865;53.672;10.250;2023-04-09T06:14:19;102406.34;;;5.30;100.00
1736;BME280;865;53.672;10.250;2023-04-09T06:16:45;102407.16;;;5.29;100.00
1736;BME280;865;53.672;10.250;2023-04-09T06:19:12;102414.19;;;5.33;100.00
1736;BME280;865;53.672;10.250;2023-04-09T06:21:40;102404.81;;;5.38;100.00
1736;BME280;865;53.672;10.250;2023-04-09T06:24:07;102411.81;;;5.41;100.00
1736;BME280;865;53.672;10.250;2023-04-09T06:26:33;102410.59;;;5.28;100.00
1736;BME280;865;53.672;10.250;2023-04-09T06:29:00;102410.41;;;5.22;100.00
1736;BME280;865;53.672;10.250;2023-04-09T06:31:26;102418.22;;;5.23;100.00
1736;BME280;865;53.672;10.250;2023-04-09T06:33:53;102422.84;;;5.35;100.00
1736;BME280;865;53.672;10.250;2023-04-09T06:36:20;102416.03;;;5.37;100.00
1736;BME280;865;53.672;10.250;2023-04-09T06:38:46;102414.53;;;5.45;100.00
1736;BME280;865;53.672;10.250;2023-04-09T06:41:12;102419.72;;;5.45;100.00
1736;BME280;865;53.672;10.250;2023-04-09T06:43:40;102421.44;;;5.46;100.00
1736;BME280;865;53.672;10.250;2023-04-09T06:46:06;102425.84;;;5.49;100.00
1736;BME280;865;53.672;10.250;2023-04-09T06:48:33;102424.00;;;5.45;100.00
1736;BME280;865;53.672;10.250;2023-04-09T06:51:00;102433.59;;;5.47;100.00
1736;BME280;865;53.672;10.250;2023-04-09T06:53:26;102436.09;;;5.44;100.00
1736;BME280;865;53.672;10.250;2023-04-09T06:55:52;102434.88;;;5.33;100.00
1736;BME280;865;53.672;10.250;2023-04-09T06:58:21;102440.97;;;5.35;100.00
1736;BME280;865;53.672;10.250;2023-04-09T07:00:48;102435.94;;;5.40;100.00
1736;BME280;865;53.672;10.250;2023-04-09T07:03:14;102452.41;;;5.42;100.00
1736;BME280;865;53.672;10.250;2023-04-09T07:05:41;102449.03;;;5.44;100.00
1736;BME280;865;53.672;10.250;2023-04-09T07:08:07;102448.81;;;5.38;100.00
1736;BME280;865;53.672;10.250;2023-04-09T07:10:33;102449.03;;;5.44;100.00
1736;BME280;865;53.672;10.250;2023-04-09T07:13:00;102447.25;;;5.43;100.00
1736;BME280;865;53.672;10.250;2023-04-09T07:15:26;102451.72;;;5.49;100.00
1736;BME280;865;53.672;10.250;2023-04-09T07:17:53;102439.81;;;5.56;100.00
1736;BME280;865;53.672;10.250;2023-04-09T07:20:19;102438.94;;;5.54;100.00
1736;BME280;865;53.672;10.250;2023-04-09T07:22:46;102433.13;;;5.62;100.00
1736;BME280;865;53.672;10.250;2023-04-09T07:25:13;102433.94;;;5.61;100.00
1736;BME280;865;53.672;10.250;2023-04-09T07:27:39;102438.72;;;5.78;100.00
1736;BME280;865;53.672;10.250;2023-04-09T07:30:06;102437.88;;;5.77;100.00
1736;BME280;865;53.672;10.250;2023-04-09T07:32:33;102438.13;;;5.56;100.00
1736;BME280;865;53.672;10.250;2023-04-09T07:34:59;102442.50;;;5.59;100.00
1736;BME280;865;53.672;10.250;2023-04-09T07:37:27;102437.47;;;5.63;100.00
1736;BME280;865;53.672;10.250;2023-04-09T07:39:53;102441.84;;;5.66;100.00
1736;BME280;865;53.672;10.250;2023-04-09T07:42:20;102439.09;;;5.60;100.00
1736;BME280;865;53.672;10.250;2023-04-09T07:44:47;102447.84;;;5.65;100.00
1736;BME280;865;53.672;10.250;2023-04-09T07:47:14;102451.53;;;5.73;100.00
1736;BME280;865;53.672;10.250;2023-04-09T07:49:40;102454.28;;;5.78;100.00
1736;BME280;865;53.672;10.250;2023-04-09T07:52:07;102454.09;;;5.71;100.00
1736;BME280;865;53.672;10.250;2023-04-09T07:54:34;102452.25;;;5.67;100.00
1736;BME280;865;53.672;10.250;2023-04-09T07:57:01;102447.56;;;5.86;100.00
1736;BME280;865;53.672;10.250;2023-04-09T07:59:28;102451.22;;;5.92;100.00
1736;BME280;865;53.672;10.250;2023-04-09T08:01:54;102450.72;;;6.04;100.00
1736;BME280;865;53.672;10.250;2023-04-09T08:04:21;102447.47;;;6.13;100.00
1736;BME280;865;53.672;10.250;2023-04-09T08:06:48;102436.22;;;6.12;100.00
1736;BME280;865;53.672;10.250;2023-04-09T08:09:19;102445.78;;;6.15;100.00
1736;BME280;865;53.672;10.250;2023-04-09T08:11:47;102448.28;;;6.12;100.00
1736;BME280;865;53.672;10.250;2023-04-09T08:14:15;102451.03;;;6.18;100.00
1736;BME280;865;53.672;10.250;2023-04-09T08:16:44;102451.19;;;6.23;100.00
1736;BME280;865;53.672;10.250;2023-04-09T08:19:12;102452.50;;;6.07;100.00
1736;BME280;865;53.672;10.250;2023-04-09T08:21:40;102446.34;;;6.03;100.00
1736;BME280;865;53.672;10.250;2023-04-09T08:24:10;102447.44;;;6.11;100.00
1736;BME280;865;53.672;10.250;2023-04-09T08:26:37;102445.22;;;6.25;100.00
1736;BME280;865;53.672;10.250;2023-04-09T08:29:04;102446.22;;;6.32;100.00
1736;BME280;865;53.672;10.250;2023-04-09T08:31:31;102452.19;;;6.28;100.00
1736;BME280;865;53.672;10.250;2023-04-09T08:33:57;102450.72;;;6.39;100.00
1736;BME280;865;53.672;10.250;2023-04-09T08:36:23;102450.63;;;6.34;100.00
1736;BME280;865;53.672;10.250;2023-04-09T08:38:51;102446.50;;;6.43;100.00
1736;BME280;865;53.672;10.250;2023-04-09T08:41:23;102455.25;;;6.48;100.00
1736;BME280;865;53.672;10.250;2023-04-09T08:43:51;102455.31;;;6.49;100.00
1736;BME280;865;53.672;10.250;2023-04-09T08:46:24;102454.53;;;6.53;100.00
1736;BME280;865;53.672;10.250;2023-04-09T08:48:51;102460.44;;;6.48;100.00
1736;BME280;865;53.672;10.250;2023-04-09T08:51:20;102447.03;;;6.66;100.00
1736;BME280;865;53.672;10.250;2023-04-09T08:54:00;102454.16;;;6.74;100.00
1736;BME280;865;53.672;10.250;2023-04-09T08:56:30;102452.56;;;6.79;100.00
1736;BME280;865;53.672;10.250;2023-04-09T08:58:56;102459.22;;;6.68;100.00
1736;BME280;865;53.672;10.250;2023-04-09T09:01:27;102455.41;;;6.54;100.00
1736;BME280;865;53.672;10.250;2023-04-09T09:04:05;102454.69;;;6.59;100.00
1736;BME280;865;53.672;10.250;2023-04-09T09:06:33;102462.53;;;6.62;100.00
1736;BME280;865;53.672;10.250;2023-04-09T09:09:05;102458.38;;;6.69;100.00
1736;BME280;865;53.672;10.250;2023-04-09T09:11:33;102452.66;;;6.82;100.00
1736;BME280;865;53.672;10.250;2023-04-09T09:14:05;102459.34;;;6.74;100.00
1736;BME280;865;53.672;10.250;2023-04-09T09:16:37;102451.91;;;6.88;100.00
1736;BME280;865;53.672;10.250;2023-04-09T09:19:29;102452.56;;;6.79;100.00
1736;BME280;865;53.672;10.250;2023-04-09T09:21:57;102449.28;;;6.87;100.00
1736;BME280;865;53.672;10.250;2023-04-09T09:24:23;102451.25;;;6.97;100.00
1736;BME280;865;53.672;10.250;2023-04-09T09:26:51;102452.06;;;6.94;100.00
1736;BME280;865;53.672;10.250;2023-04-09T09:29:17;102448.13;;;7.12;100.00
1736;BME280;865;53.672;10.250;2023-04-09T09:31:49;102454.72;;;6.99;100.00
1736;BME280;865;53.672;10.250;2023-04-09T09:34:17;102452.06;;;6.94;100.00
1736;BME280;865;53.672;10.250;2023-04-09T09:36:45;102442.94;;;7.12;100.00
1736;BME280;865;53.672;10.250;2023-04-09T09:39:12;102449.97;;;7.17;100.00
1736;BME280;865;53.672;10.250;2023-04-09T09:41:39;102441.47;;;7.24;100.00
1736;BME280;865;53.672;10.250;2023-04-09T09:44:10;102435.22;;;7.16;100.00
1736;BME280;865;53.672;10.250;2023-04-09T09:46:40;102429.53;;;7.33;100.00
1736;BME280;865;53.672;10.250;2023-04-09T09:49:08;102434.34;;;7.14;100.00
1736;BME280;865;53.672;10.250;2023-04-09T09:51:36;102440.22;;;7.07;100.00
1736;BME280;865;53.672;10.250;2023-04-09T09:54:06;102438.41;;;7.03;100.00
1736;BME280;865;53.672;10.250;2023-04-09T09:56:38;102435.88;;;7.06;100.00
1736;BME280;865;53.672;10.250;2023-04-09T10:01:37;102436.09;;;7.15;100.00
1736;BME280;865;53.672;10.250;2023-04-09T10:04:05;102435.44;;;7.25;100.00
1736;BME280;865;53.672;10.250;2023-04-09T10:06:32;102437.03;;;7.19;100.00
1736;BME280;865;53.672;10.250;2023-04-09T10:09:04;102439.66;;;7.20;100.00
1736;BME280;865;53.672;10.250;2023-04-09T10:11:32;102437.28;;;7.31;100.00
1736;BME280;865;53.672;10.250;2023-04-09T10:14:00;102432.25;;;7.39;100.00
1736;BME280;865;53.672;10.250;2023-04-09T10:16:27;102427.06;;;7.40;100.00
1736;BME280;865;53.672;10.250;2023-04-09T10:18:54;102433.31;;;7.47;100.00
1736;BME280;865;53.672;10.250;2023-04-09T10:24:10;102428.09;;;7.47;100.00
1736;BME280;865;53.672;10.250;2023-04-09T10:26:39;102421.81;;;7.37;100.00
1736;BME280;865;53.672;10.250;2023-04-09T10:29:08;102424.47;;;7.39;100.00
1736;BME280;865;53.672;10.250;2023-04-09T10:31:50;102419.41;;;7.45;100.00
1736;BME280;865;53.672;10.250;2023-04-09T10:34:20;102420.38;;;7.50;100.00
1736;BME280;865;53.672;10.250;2023-04-09T10:37:14;102419.22;;;7.37;100.00
1736;BME280;865;53.672;10.250;2023-04-09T10:39:44;102419.22;;;7.37;100.00
1736;BME280;865;53.672;10.250;2023-04-09T10:42:13;102419.22;;;7.37;100.00
1736;BME280;865;53.672;10.250;2023-04-09T10:44:40;102418.34;;;7.35;100.00
1736;BME280;865;53.672;10.250;2023-04-09T10:47:08;102421.00;;;7.38;100.00
1736;BME280;865;53.672;10.250;2023-04-09T10:49:37;102428.03;;;7.44;100.00
1736;BME280;865;53.672;10.250;2023-04-09T10:52:07;102418.59;;;7.49;100.00
1736;BME280;865;53.672;10.250;2023-04-09T10:54:38;102413.53;;;7.55;100.00
1736;BME280;865;53.672;10.250;2023-04-09T10:57:15;102412.53;;;7.47;100.00
1736;BME280;865;53.672;10.250;2023-04-09T10:59:47;102412.97;;;7.27;100.00
1736;BME280;865;53.672;10.250;2023-04-09T11:05:18;102410.00;;;7.09;100.00
1736;BME280;865;53.672;10.250;2023-04-09T11:08:10;102409.44;;;7.24;100.00
1736;BME280;865;53.672;10.250;2023-04-09T11:10:38;102405.38;;;7.37;100.00
1736;BME280;865;53.672;10.250;2023-04-09T11:13:10;102407.91;;;7.32;100.00
1736;BME280;865;53.672;10.250;2023-04-09T11:15:38;102410.44;;;7.30;100.00
1736;BME280;865;53.672;10.250;2023-04-09T11:18:05;102406.75;;;7.19;100.00
1736;BME280;865;53.672;10.250;2023-04-09T11:20:39;102415.69;;;7.32;100.00
1736;BME280;865;53.672;10.250;2023-04-09T11:23:06;102415.69;;;7.34;100.00
1736;BME280;865;53.672;10.250;2023-04-09T11:25:33;102408.16;;;7.44;100.00
1736;BME280;865;53.672;10.250;2023-04-09T11:28:02;102404.75;;;7.48;100.00
1736;BME280;865;53.672;10.250;2023-04-09T11:30:29;102408.31;;;7.53;100.00
1736;BME280;865;53.672;10.250;2023-04-09T11:32:56;102400.75;;;7.66;100.00
1736;BME280;865;53.672;10.250;2023-04-09T11:35:22;102403.59;;;7.78;100.00
1736;BME280;865;53.672;10.250;2023-04-09T11:37:49;102404.50;;;7.80;100.00
1736;BME280;865;53.672;10.250;2023-04-09T11:40:24;102399.38;;;7.85;100.00
1736;BME280;865;53.672;10.250;2023-04-09T11:42:52;102399.09;;;7.69;100.00
1736;BME280;865;53.672;10.250;2023-04-09T11:45:23;102397.44;;;7.73;100.00
1736;BME280;865;53.672;10.250;2023-04-09T11:47:49;102395.94;;;7.86;100.00
1736;BME280;865;53.672;10.250;2023-04-09T11:50:16;102396.00;;;7.90;100.00
1736;BME280;865;53.672;10.250;2023-04-09T11:52:44;102387.50;;;7.99;100.00
1736;BME280;865;53.672;10.250;2023-04-09T11:55:11;102379.72;;;7.97;100.00
1736;BME280;865;53.672;10.250;2023-04-09T11:57:47;102385.06;;;8.07;100.00
1736;BME280;865;53.672;10.250;2023-04-09T12:00:15;102380.84;;;8.15;100.00
1736;BME280;865;53.672;10.250;2023-04-09T12:02:44;102379.25;;;8.23;100.00
1736;BME280;865;53.672;10.250;2023-04-09T12:05:20;102372.31;;;8.23;100.00
1736;BME280;865;53.672;10.250;2023-04-09T12:07:47;102379.41;;;8.32;100.00
1736;BME280;865;53.672;10.250;2023-04-09T12:10:25;102367.44;;;8.39;100.00
1736;BME280;865;53.672;10.250;2023-04-09T12:12:52;102371.03;;;8.50;100.00
1736;BME280;865;53.672;10.250;2023-04-09T12:15:20;102369.25;;;8.46;100.00
1736;BME280;865;53.672;10.250;2023-04-09T12:17:48;102362.38;;;8.50;100.00
1736;BME280;865;53.672;10.250;2023-04-09T12:20:35;102353.84;;;8.58;100.00
1736;BME280;865;53.672;10.250;2023-04-09T12:23:03;102353.88;;;8.61;100.00
1736;BME280;865;53.672;10.250;2023-04-09T12:25:31;102350.66;;;8.79;100.00
1736;BME280;865;53.672;10.250;2023-04-09T12:27:57;102340.41;;;8.90;100.00
1736;BME280;865;53.672;10.250;2023-04-09T12:30:24;102340.56;;;9.02;100.00
1736;BME280;865;53.672;10.250;2023-04-09T12:32:51;102338.94;;;9.12;100.00
1736;BME280;865;53.672;10.250;2023-04-09T12:35:19;102333.47;;;8.92;100.00
1736;BME280;865;53.672;10.250;2023-04-09T12:37:46;102329.13;;;8.91;100.00
1736;BME280;865;53.672;10.250;2023-04-09T12:40:13;102328.47;;;9.07;100.00
1736;BME280;865;53.672;10.250;2023-04-09T12:42:40;102322.56;;;9.24;100.00
1736;BME280;865;53.672;10.250;2023-04-09T12:45:09;102317.59;;;9.45;100.00
1736;BME280;865;53.672;10.250;2023-04-09T12:47:36;102314.09;;;9.40;100.00
1736;BME280;865;53.672;10.250;2023-04-09T12:50:03;102307.22;;;9.48;100.00
1736;BME280;865;53.672;10.250;2023-04-09T12:52:29;102310.91;;;9.70;100.00
1736;BME280;865;53.672;10.250;2023-04-09T12:54:56;102304.06;;;9.83;100.00
1736;BME280;865;53.672;10.250;2023-04-09T12:57:22;102310.34;;;10.07;100.00
1736;BME280;865;53.672;10.250;2023-04-09T12:59:48;102302.38;;;9.88;100.00
1736;BME280;865;53.672;10.250;2023-04-09T13:02:15;102297.28;;;10.08;100.00
1736;BME280;865;53.672;10.250;2023-04-09T13:04:42;102294.03;;;10.34;100.00
1736;BME280;865;53.672;10.250;2023-04-09T13:07:09;102294.81;;;10.20;100.00
1736;BME280;865;53.672;10.250;2023-04-09T13:09:37;102296.72;;;10.41;100.00
1736;BME280;865;53.672;10.250;2023-04-09T13:12:03;102285.25;;;10.22;100.00
1736;BME280;865;53.672;10.250;2023-04-09T13:14:29;102286.00;;;10.06;100.00
1736;BME280;865;53.672;10.250;2023-04-09T13:16:56;102282.53;;;10.07;100.00
1736;BME280;865;53.672;10.250;2023-04-09T13:19:23;102282.72;;;10.27;100.00
1736;BME280;865;53.672;10.250;2023-04-09T13:21:49;102276.69;;;10.39;100.00
1736;BME280;865;53.672;10.250;2023-04-09T13:24:15;102275.03;;;10.55;100.00